sensor_id;sensor_type;location;lat;lon;timestamp;P1;durP1;ratioP1;P2;durP2;ratioP2
20073;SDS011;10197;54.282;10.078;2022-12-18T00:02:21;31.30;;;17.73;;
20073;SDS011;10197;54.282;10.078;2022-12-18T00:04:48;30.48;;;18.40;;
20073;SDS011;10197;54.282;10.078;2022-12-18T00:07:15;30.05;;;19.00;;
20073;SDS011;10197;54.282;10.078;2022-12-18T00:09:42;28.80;;;18.00;;
20073;SDS011;10197;54.282;10.078;2022-12-18T00:12:09;28.13;;;18.13;;
20073;SDS011;10197;54.282;10.078;2022-12-18T00:14:36;29.45;;;18.38;;
20073;SDS011;10197;54.282;10.078;2022-12-18T00:17:04;32.20;;;18.70;;
20073;SDS011;10197;54.282;10.078;2022-12-18T00:19:31;24.90;;;17.60;;
20073;SDS011;10197;54.282;10.078;2022-12-18T00:21:58;28.02;;;18.02;;
20073;SDS011;10197;54.282;10.078;2022-12-18T00:24:25;29.17;;;18.70;;
20073;SDS011;10197;54.282;10.078;2022-12-18T00:26:52;34.10;;;19.92;;
20073;SDS011;10197;54.282;10.078;2022-12-18T00:29:19;30.98;;;18.05;;
20073;SDS011;10197;54.282;10.078;2022-12-18T00:31:47;23.42;;;16.58;;
20073;SDS011;10197;54.282;10.078;2022-12-18T00:34:15;25.17;;;16.90;;
20073;SDS011;10197;54.282;10.078;2022-12-18T00:36:42;30.55;;;17.52;;
20073;SDS011;10197;54.282;10.078;2022-12-18T00:39:11;31.45;;;17.70;;
20073;SDS011;10197;54.282;10.078;2022-12-18T00:41:38;26.52;;;17.02;;
20073;SDS011;10197;54.282;10.078;2022-12-18T00:44:24;27.48;;;16.40;;
20073;SDS011;10197;54.282;10.078;2022-12-18T00:46:51;27.02;;;16.52;;
20073;SDS011;10197;54.282;10.078;2022-12-18T00:49:19;30.42;;;18.40;;
20073;SDS011;10197;54.282;10.078;2022-12-18T00:51:47;23.67;;;15.20;;
20073;SDS011;10197;54.282;10.078;2022-12-18T00:54:14;27.35;;;16.88;;
20073;SDS011;10197;54.282;10.078;2022-12-18T00:56:42;26.63;;;17.23;;
20073;SDS011;10197;54.282;10.078;2022-12-18T00:59:09;24.60;;;16.85;;
20073;SDS011;10197;54.282;10.078;2022-12-18T01:01:37;25.38;;;16.25;;
20073;SDS011;10197;54.282;10.078;2022-12-18T01:04:05;25.25;;;16.90;;
20073;SDS011;10197;54.282;10.078;2022-12-18T01:06:34;25.30;;;15.88;;
20073;SDS011;10197;54.282;10.078;2022-12-18T01:09:01;27.92;;;16.02;;
20073;SDS011;10197;54.282;10.078;2022-12-18T01:11:28;27.50;;;18.08;;
20073;SDS011;10197;54.282;10.078;2022-12-18T01:13:55;29.98;;;18.45;;
20073;SDS011;10197;54.282;10.078;2022-12-18T01:16:22;30.88;;;17.10;;
20073;SDS011;10197;54.282;10.078;2022-12-18T01:18:51;23.58;;;16.20;;
20073;SDS011;10197;54.282;10.078;2022-12-18T01:21:19;28.00;;;16.73;;
20073;SDS011;10197;54.282;10.078;2022-12-18T01:23:50;24.35;;;15.35;;
20073;SDS011;10197;54.282;10.078;2022-12-18T01:26:18;23.55;;;15.73;;
20073;SDS011;10197;54.282;10.078;2022-12-18T01:28:45;23.42;;;16.13;;
20073;SDS011;10197;54.282;10.078;2022-12-18T01:31:13;25.90;;;16.45;;
20073;SDS011;10197;54.282;10.078;2022-12-18T01:33:41;25.13;;;16.27;;
20073;SDS011;10197;54.282;10.078;2022-12-18T01:36:13;26.33;;;16.17;;
20073;SDS011;10197;54.282;10.078;2022-12-18T01:38:41;22.13;;;15.82;;
20073;SDS011;10197;54.282;10.078;2022-12-18T01:41:09;22.85;;;15.23;;
20073;SDS011;10197;54.282;10.078;2022-12-18T01:43:43;26.30;;;16.48;;
20073;SDS011;10197;54.282;10.078;2022-12-18T01:46:18;25.83;;;17.00;;
20073;SDS011;10197;54.282;10.078;2022-12-18T01:48:46;25.35;;;15.38;;
20073;SDS011;10197;54.282;10.078;2022-12-18T01:51:15;24.80;;;15.98;;
20073;SDS011;10197;54.282;10.078;2022-12-18T01:53:42;25.52;;;16.17;;
20073;SDS011;10197;54.282;10.078;2022-12-18T01:56:13;25.60;;;15.13;;
20073;SDS011;10197;54.282;10.078;2022-12-18T01:58:44;23.27;;;15.30;;
20073;SDS011;10197;54.282;10.078;2022-12-18T02:01:15;22.15;;;14.48;;
20073;SDS011;10197;54.282;10.078;2022-12-18T02:03:43;22.73;;;15.38;;
20073;SDS011;10197;54.282;10.078;2022-12-18T02:06:13;23.52;;;15.23;;
20073;SDS011;10197;54.282;10.078;2022-12-18T02:08:47;26.90;;;17.13;;
20073;SDS011;10197;54.282;10.078;2022-12-18T02:11:20;25.83;;;16.35;;
20073;SDS011;10197;54.282;10.078;2022-12-18T02:13:57;31.02;;;15.88;;
20073;SDS011;10197;54.282;10.078;2022-12-18T02:16:30;24.80;;;15.52;;
20073;SDS011;10197;54.282;10.078;2022-12-18T02:19:03;26.05;;;15.10;;
20073;SDS011;10197;54.282;10.078;2022-12-18T02:21:36;25.40;;;14.93;;
20073;SDS011;10197;54.282;10.078;2022-12-18T02:24:16;24.20;;;14.95;;
20073;SDS011;10197;54.282;10.078;2022-12-18T02:26:48;26.13;;;15.13;;
20073;SDS011;10197;54.282;10.078;2022-12-18T02:29:21;20.55;;;14.23;;
20073;SDS011;10197;54.282;10.078;2022-12-18T02:31:53;23.10;;;14.88;;
20073;SDS011;10197;54.282;10.078;2022-12-18T02:34:23;25.83;;;15.50;;
20073;SDS011;10197;54.282;10.078;2022-12-18T02:36:54;21.55;;;15.00;;
20073;SDS011;10197;54.282;10.078;2022-12-18T02:39:23;23.65;;;16.25;;
20073;SDS011;10197;54.282;10.078;2022-12-18T02:42:03;26.17;;;15.52;;
20073;SDS011;10197;54.282;10.078;2022-12-18T02:44:33;24.15;;;14.93;;
20073;SDS011;10197;54.282;10.078;2022-12-18T02:47:03;24.02;;;15.13;;
20073;SDS011;10197;54.282;10.078;2022-12-18T02:49:32;21.20;;;14.73;;
20073;SDS011;10197;54.282;10.078;2022-12-18T02:52:05;26.85;;;15.95;;
20073;SDS011;10197;54.282;10.078;2022-12-18T02:54:45;20.20;;;14.65;;
20073;SDS011;10197;54.282;10.078;2022-12-18T02:57:23;21.92;;;13.77;;
20073;SDS011;10197;54.282;10.078;2022-12-18T02:59:56;24.13;;;15.05;;
20073;SDS011;10197;54.282;10.078;2022-12-18T03:02:26;21.25;;;14.15;;
20073;SDS011;10197;54.282;10.078;2022-12-18T03:04:59;26.25;;;14.82;;
20073;SDS011;10197;54.282;10.078;2022-12-18T03:07:33;21.42;;;14.13;;
20073;SDS011;10197;54.282;10.078;2022-12-18T03:10:06;24.98;;;14.80;;
20073;SDS011;10197;54.282;10.078;2022-12-18T03:12:37;20.98;;;13.27;;
20073;SDS011;10197;54.282;10.078;2022-12-18T03:15:08;23.92;;;15.27;;
20073;SDS011;10197;54.282;10.078;2022-12-18T03:17:39;21.80;;;14.23;;
20073;SDS011;10197;54.282;10.078;2022-12-18T03:20:09;23.73;;;15.05;;
20073;SDS011;10197;54.282;10.078;2022-12-18T03:22:39;26.60;;;16.25;;
20073;SDS011;10197;54.282;10.078;2022-12-18T03:25:09;23.05;;;14.48;;
20073;SDS011;10197;54.282;10.078;2022-12-18T03:27:41;20.23;;;13.70;;
20073;SDS011;10197;54.282;10.078;2022-12-18T03:30:12;24.38;;;15.35;;
20073;SDS011;10197;54.282;10.078;2022-12-18T03:32:40;21.67;;;15.05;;
20073;SDS011;10197;54.282;10.078;2022-12-18T03:35:09;25.73;;;15.50;;
20073;SDS011;10197;54.282;10.078;2022-12-18T03:37:37;22.60;;;15.05;;
20073;SDS011;10197;54.282;10.078;2022-12-18T03:40:07;22.88;;;14.65;;
20073;SDS011;10197;54.282;10.078;2022-12-18T03:42:37;23.50;;;15.13;;
20073;SDS011;10197;54.282;10.078;2022-12-18T03:45:11;22.02;;;13.50;;
20073;SDS011;10197;54.282;10.078;2022-12-18T03:47:44;24.50;;;15.32;;
20073;SDS011;10197;54.282;10.078;2022-12-18T03:50:16;19.95;;;14.63;;
20073;SDS011;10197;54.282;10.078;2022-12-18T03:52:49;25.63;;;14.93;;
20073;SDS011;10197;54.282;10.078;2022-12-18T03:55:19;22.73;;;13.85;;
20073;SDS011;10197;54.282;10.078;2022-12-18T03:57:55;21.48;;;14.65;;
20073;SDS011;10197;54.282;10.078;2022-12-18T04:00:25;22.63;;;15.63;;
20073;SDS011;10197;54.282;10.078;2022-12-18T04:03:01;21.30;;;13.60;;
20073;SDS011;10197;54.282;10.078;2022-12-18T04:05:34;21.92;;;14.57;;
20073;SDS011;10197;54.282;10.078;2022-12-18T04:08:02;23.05;;;14.52;;
20073;SDS011;10197;54.282;10.078;2022-12-18T04:10:35;22.25;;;14.88;;
20073;SDS011;10197;54.282;10.078;2022-12-18T04:13:03;20.55;;;14.32;;
20073;SDS011;10197;54.282;10.078;2022-12-18T04:15:31;24.05;;;15.52;;
20073;SDS011;10197;54.282;10.078;2022-12-18T04:18:02;23.85;;;14.23;;
20073;SDS011;10197;54.282;10.078;2022-12-18T04:20:36;22.55;;;15.70;;
20073;SDS011;10197;54.282;10.078;2022-12-18T04:23:04;21.25;;;14.90;;
20073;SDS011;10197;54.282;10.078;2022-12-18T04:25:31;27.00;;;14.98;;
20073;SDS011;10197;54.282;10.078;2022-12-18T04:28:09;21.85;;;14.10;;
20073;SDS011;10197;54.282;10.078;2022-12-18T04:30:37;21.27;;;14.52;;
20073;SDS011;10197;54.282;10.078;2022-12-18T04:33:08;23.88;;;15.68;;
20073;SDS011;10197;54.282;10.078;2022-12-18T04:35:35;25.20;;;14.88;;
20073;SDS011;10197;54.282;10.078;2022-12-18T04:38:03;22.67;;;14.85;;
20073;SDS011;10197;54.282;10.078;2022-12-18T04:40:30;19.25;;;12.75;;
20073;SDS011;10197;54.282;10.078;2022-12-18T04:42:57;22.90;;;13.95;;
20073;SDS011;10197;54.282;10.078;2022-12-18T04:45:26;20.77;;;13.40;;
20073;SDS011;10197;54.282;10.078;2022-12-18T04:47:53;22.95;;;14.15;;
20073;SDS011;10197;54.282;10.078;2022-12-18T04:50:20;27.40;;;16.05;;
20073;SDS011;10197;54.282;10.078;2022-12-18T04:52:47;19.77;;;13.95;;
20073;SDS011;10197;54.282;10.078;2022-12-18T04:55:14;22.60;;;14.98;;
20073;SDS011;10197;54.282;10.078;2022-12-18T04:57:41;22.27;;;13.68;;
20073;SDS011;10197;54.282;10.078;2022-12-18T05:00:09;21.55;;;13.15;;
20073;SDS011;10197;54.282;10.078;2022-12-18T05:02:38;22.15;;;14.68;;
20073;SDS011;10197;54.282;10.078;2022-12-18T05:05:05;20.13;;;13.10;;
20073;SDS011;10197;54.282;10.078;2022-12-18T05:07:32;18.35;;;12.63;;
20073;SDS011;10197;54.282;10.078;2022-12-18T05:09:59;20.27;;;12.40;;
20073;SDS011;10197;54.282;10.078;2022-12-18T05:12:30;20.95;;;14.18;;
20073;SDS011;10197;54.282;10.078;2022-12-18T05:14:57;18.85;;;12.77;;
20073;SDS011;10197;54.282;10.078;2022-12-18T05:17:24;20.73;;;13.40;;
20073;SDS011;10197;54.282;10.078;2022-12-18T05:19:53;21.00;;;13.10;;
20073;SDS011;10197;54.282;10.078;2022-12-18T05:22:19;19.25;;;13.05;;
20073;SDS011;10197;54.282;10.078;2022-12-18T05:24:46;24.23;;;13.70;;
20073;SDS011;10197;54.282;10.078;2022-12-18T05:27:13;24.15;;;14.32;;
20073;SDS011;10197;54.282;10.078;2022-12-18T05:29:40;21.17;;;13.38;;
20073;SDS011;10197;54.282;10.078;2022-12-18T05:32:07;20.15;;;13.25;;
20073;SDS011;10197;54.282;10.078;2022-12-18T05:34:34;20.42;;;12.80;;
20073;SDS011;10197;54.282;10.078;2022-12-18T05:37:02;21.02;;;12.85;;
20073;SDS011;10197;54.282;10.078;2022-12-18T05:39:29;19.80;;;13.88;;
20073;SDS011;10197;54.282;10.078;2022-12-18T05:41:56;22.05;;;13.93;;
20073;SDS011;10197;54.282;10.078;2022-12-18T05:44:23;23.02;;;14.02;;
20073;SDS011;10197;54.282;10.078;2022-12-18T05:46:50;21.48;;;14.73;;
20073;SDS011;10197;54.282;10.078;2022-12-18T05:49:17;24.50;;;14.68;;
20073;SDS011;10197;54.282;10.078;2022-12-18T05:51:44;24.10;;;14.75;;
20073;SDS011;10197;54.282;10.078;2022-12-18T05:54:12;21.13;;;13.68;;
20073;SDS011;10197;54.282;10.078;2022-12-18T05:56:40;21.17;;;13.55;;
20073;SDS011;10197;54.282;10.078;2022-12-18T05:59:07;22.83;;;14.32;;
20073;SDS011;10197;54.282;10.078;2022-12-18T06:01:35;17.10;;;12.48;;
20073;SDS011;10197;54.282;10.078;2022-12-18T06:04:02;20.35;;;12.70;;
20073;SDS011;10197;54.282;10.078;2022-12-18T06:06:29;21.65;;;14.10;;
20073;SDS011;10197;54.282;10.078;2022-12-18T06:08:56;18.30;;;13.07;;
20073;SDS011;10197;54.282;10.078;2022-12-18T06:11:25;18.08;;;12.63;;
20073;SDS011;10197;54.282;10.078;2022-12-18T06:13:53;23.20;;;13.55;;
20073;SDS011;10197;54.282;10.078;2022-12-18T06:16:20;20.15;;;13.70;;
20073;SDS011;10197;54.282;10.078;2022-12-18T06:18:47;20.98;;;13.00;;
20073;SDS011;10197;54.282;10.078;2022-12-18T06:21:14;19.05;;;13.63;;
20073;SDS011;10197;54.282;10.078;2022-12-18T06:23:41;23.60;;;14.93;;
20073;SDS011;10197;54.282;10.078;2022-12-18T06:26:09;20.60;;;13.73;;
20073;SDS011;10197;54.282;10.078;2022-12-18T06:28:43;21.73;;;14.25;;
20073;SDS011;10197;54.282;10.078;2022-12-18T06:31:10;20.25;;;13.45;;
20073;SDS011;10197;54.282;10.078;2022-12-18T06:33:37;19.27;;;13.13;;
20073;SDS011;10197;54.282;10.078;2022-12-18T06:36:05;20.38;;;13.95;;
20073;SDS011;10197;54.282;10.078;2022-12-18T06:38:33;19.60;;;13.63;;
20073;SDS011;10197;54.282;10.078;2022-12-18T06:41:00;21.48;;;14.57;;
20073;SDS011;10197;54.282;10.078;2022-12-18T06:43:32;21.15;;;12.98;;
20073;SDS011;10197;54.282;10.078;2022-12-18T06:46:01;21.45;;;14.70;;
20073;SDS011;10197;54.282;10.078;2022-12-18T06:48:28;22.48;;;14.85;;
20073;SDS011;10197;54.282;10.078;2022-12-18T06:50:56;19.27;;;13.13;;
20073;SDS011;10197;54.282;10.078;2022-12-18T06:53:23;21.00;;;14.40;;
20073;SDS011;10197;54.282;10.078;2022-12-18T06:55:50;20.38;;;13.23;;
20073;SDS011;10197;54.282;10.078;2022-12-18T06:58:17;22.58;;;12.32;;
20073;SDS011;10197;54.282;10.078;2022-12-18T07:00:44;20.65;;;13.52;;
20073;SDS011;10197;54.282;10.078;2022-12-18T07:03:13;19.85;;;14.32;;
20073;SDS011;10197;54.282;10.078;2022-12-18T07:05:40;17.58;;;13.13;;
20073;SDS011;10197;54.282;10.078;2022-12-18T07:08:07;18.27;;;13.45;;
20073;SDS011;10197;54.282;10.078;2022-12-18T07:10:40;19.00;;;13.18;;
20073;SDS011;10197;54.282;10.078;2022-12-18T07:13:07;19.80;;;12.52;;
20073;SDS011;10197;54.282;10.078;2022-12-18T07:15:34;19.08;;;13.07;;
20073;SDS011;10197;54.282;10.078;2022-12-18T07:18:01;18.45;;;12.57;;
20073;SDS011;10197;54.282;10.078;2022-12-18T07:20:30;15.13;;;11.82;;
20073;SDS011;10197;54.282;10.078;2022-12-18T07:22:57;18.25;;;12.20;;
20073;SDS011;10197;54.282;10.078;2022-12-18T07:25:24;18.08;;;12.38;;
20073;SDS011;10197;54.282;10.078;2022-12-18T07:27:51;20.30;;;12.45;;
20073;SDS011;10197;54.282;10.078;2022-12-18T07:30:19;18.42;;;12.32;;
20073;SDS011;10197;54.282;10.078;2022-12-18T07:32:49;19.08;;;12.05;;
20073;SDS011;10197;54.282;10.078;2022-12-18T07:35:16;18.83;;;12.90;;
20073;SDS011;10197;54.282;10.078;2022-12-18T07:37:44;20.08;;;12.80;;
20073;SDS011;10197;54.282;10.078;2022-12-18T07:40:11;20.38;;;12.48;;
20073;SDS011;10197;54.282;10.078;2022-12-18T07:42:38;20.13;;;12.93;;
20073;SDS011;10197;54.282;10.078;2022-12-18T07:45:07;18.67;;;11.93;;
20073;SDS011;10197;54.282;10.078;2022-12-18T07:47:34;17.52;;;12.43;;
20073;SDS011;10197;54.282;10.078;2022-12-18T07:50:02;20.60;;;12.70;;
20073;SDS011;10197;54.282;10.078;2022-12-18T07:52:29;18.75;;;12.07;;
20073;SDS011;10197;54.282;10.078;2022-12-18T07:54:57;18.02;;;12.43;;
20073;SDS011;10197;54.282;10.078;2022-12-18T07:57:24;23.85;;;12.80;;
20073;SDS011;10197;54.282;10.078;2022-12-18T07:59:51;16.13;;;12.55;;
20073;SDS011;10197;54.282;10.078;2022-12-18T08:02:18;20.95;;;12.45;;
20073;SDS011;10197;54.282;10.078;2022-12-18T08:04:45;18.63;;;11.93;;
20073;SDS011;10197;54.282;10.078;2022-12-18T08:07:12;19.90;;;13.20;;
20073;SDS011;10197;54.282;10.078;2022-12-18T08:09:39;96.45;;;36.33;;
20073;SDS011;10197;54.282;10.078;2022-12-18T08:12:07;133.07;;;53.47;;
20073;SDS011;10197;54.282;10.078;2022-12-18T08:14:34;92.53;;;43.03;;
20073;SDS011;10197;54.282;10.078;2022-12-18T08:17:01;59.45;;;30.30;;
20073;SDS011;10197;54.282;10.078;2022-12-18T08:19:28;39.60;;;22.67;;
20073;SDS011;10197;54.282;10.078;2022-12-18T08:21:55;31.40;;;16.73;;
20073;SDS011;10197;54.282;10.078;2022-12-18T08:24:23;22.08;;;13.60;;
20073;SDS011;10197;54.282;10.078;2022-12-18T08:26:50;18.63;;;13.50;;
20073;SDS011;10197;54.282;10.078;2022-12-18T08:29:19;21.25;;;13.15;;
20073;SDS011;10197;54.282;10.078;2022-12-18T08:31:46;17.60;;;11.35;;
20073;SDS011;10197;54.282;10.078;2022-12-18T08:34:13;18.92;;;12.40;;
20073;SDS011;10197;54.282;10.078;2022-12-18T08:36:39;16.38;;;11.43;;
20073;SDS011;10197;54.282;10.078;2022-12-18T08:39:07;20.27;;;13.68;;
20073;SDS011;10197;54.282;10.078;2022-12-18T08:41:34;16.02;;;11.55;;
20073;SDS011;10197;54.282;10.078;2022-12-18T08:44:01;19.80;;;11.80;;
20073;SDS011;10197;54.282;10.078;2022-12-18T08:46:46;17.25;;;11.40;;
20073;SDS011;10197;54.282;10.078;2022-12-18T08:49:13;15.90;;;11.85;;
20073;SDS011;10197;54.282;10.078;2022-12-18T08:51:40;16.88;;;10.90;;
20073;SDS011;10197;54.282;10.078;2022-12-18T08:54:07;19.10;;;11.80;;
20073;SDS011;10197;54.282;10.078;2022-12-18T08:56:34;21.67;;;12.93;;
20073;SDS011;10197;54.282;10.078;2022-12-18T08:59:01;17.25;;;12.05;;
20073;SDS011;10197;54.282;10.078;2022-12-18T09:01:29;17.23;;;12.48;;
20073;SDS011;10197;54.282;10.078;2022-12-18T09:03:58;20.05;;;13.27;;
20073;SDS011;10197;54.282;10.078;2022-12-18T09:06:25;18.48;;;13.18;;
20073;SDS011;10197;54.282;10.078;2022-12-18T09:08:52;20.23;;;12.85;;
20073;SDS011;10197;54.282;10.078;2022-12-18T09:11:21;19.83;;;12.73;;
20073;SDS011;10197;54.282;10.078;2022-12-18T09:13:49;18.70;;;12.75;;
20073;SDS011;10197;54.282;10.078;2022-12-18T09:16:16;17.63;;;11.75;;
20073;SDS011;10197;54.282;10.078;2022-12-18T09:18:44;17.58;;;12.80;;
20073;SDS011;10197;54.282;10.078;2022-12-18T09:21:14;17.88;;;11.45;;
20073;SDS011;10197;54.282;10.078;2022-12-18T09:23:42;19.02;;;12.43;;
20073;SDS011;10197;54.282;10.078;2022-12-18T09:26:10;21.73;;;12.05;;
20073;SDS011;10197;54.282;10.078;2022-12-18T09:28:37;17.95;;;11.90;;
20073;SDS011;10197;54.282;10.078;2022-12-18T09:31:04;17.60;;;12.02;;
20073;SDS011;10197;54.282;10.078;2022-12-18T09:33:33;16.67;;;11.45;;
20073;SDS011;10197;54.282;10.078;2022-12-18T09:36:01;18.15;;;11.15;;
20073;SDS011;10197;54.282;10.078;2022-12-18T09:38:30;15.50;;;10.65;;
20073;SDS011;10197;54.282;10.078;2022-12-18T09:40:58;15.52;;;10.43;;
20073;SDS011;10197;54.282;10.078;2022-12-18T09:43:27;16.67;;;11.90;;
20073;SDS011;10197;54.282;10.078;2022-12-18T09:45:58;17.60;;;11.35;;
20073;SDS011;10197;54.282;10.078;2022-12-18T09:48:28;16.27;;;10.55;;
20073;SDS011;10197;54.282;10.078;2022-12-18T09:51:00;13.40;;;9.85;;
20073;SDS011;10197;54.282;10.078;2022-12-18T09:53:31;16.85;;;11.05;;
20073;SDS011;10197;54.282;10.078;2022-12-18T09:56:00;14.90;;;11.45;;
20073;SDS011;10197;54.282;10.078;2022-12-18T09:58:29;17.50;;;12.15;;
20073;SDS011;10197;54.282;10.078;2022-12-18T10:00:58;16.05;;;12.50;;
20073;SDS011;10197;54.282;10.078;2022-12-18T10:03:25;19.52;;;12.07;;
20073;SDS011;10197;54.282;10.078;2022-12-18T10:05:57;19.00;;;12.00;;
20073;SDS011;10197;54.282;10.078;2022-12-18T10:08:33;19.15;;;12.25;;
20073;SDS011;10197;54.282;10.078;2022-12-18T10:11:21;21.20;;;12.18;;
20073;SDS011;10197;54.282;10.078;2022-12-18T10:13:58;18.67;;;12.13;;
20073;SDS011;10197;54.282;10.078;2022-12-18T10:16:35;22.35;;;13.20;;
20073;SDS011;10197;54.282;10.078;2022-12-18T10:19:18;18.13;;;12.00;;
20073;SDS011;10197;54.282;10.078;2022-12-18T10:21:55;19.75;;;12.80;;
20073;SDS011;10197;54.282;10.078;2022-12-18T10:24:26;20.77;;;12.35;;
20073;SDS011;10197;54.282;10.078;2022-12-18T10:26:59;18.90;;;12.82;;
20073;SDS011;10197;54.282;10.078;2022-12-18T10:29:33;19.30;;;12.43;;
20073;SDS011;10197;54.282;10.078;2022-12-18T10:32:00;17.25;;;12.40;;
20073;SDS011;10197;54.282;10.078;2022-12-18T10:34:28;16.70;;;12.20;;
20073;SDS011;10197;54.282;10.078;2022-12-18T10:36:55;18.90;;;12.50;;
20073;SDS011;10197;54.282;10.078;2022-12-18T10:39:23;18.83;;;12.80;;
20073;SDS011;10197;54.282;10.078;2022-12-18T10:41:52;20.25;;;12.32;;
20073;SDS011;10197;54.282;10.078;2022-12-18T10:44:38;17.33;;;11.23;;
20073;SDS011;10197;54.282;10.078;2022-12-18T10:47:06;17.02;;;10.80;;
20073;SDS011;10197;54.282;10.078;2022-12-18T10:49:39;16.55;;;11.27;;
20073;SDS011;10197;54.282;10.078;2022-12-18T10:52:12;18.02;;;11.68;;
20073;SDS011;10197;54.282;10.078;2022-12-18T10:54:46;16.83;;;11.55;;
20073;SDS011;10197;54.282;10.078;2022-12-18T10:57:16;16.05;;;10.20;;
20073;SDS011;10197;54.282;10.078;2022-12-18T10:59:52;16.63;;;11.85;;
20073;SDS011;10197;54.282;10.078;2022-12-18T11:02:25;16.20;;;11.20;;
20073;SDS011;10197;54.282;10.078;2022-12-18T11:04:58;17.80;;;11.60;;
20073;SDS011;10197;54.282;10.078;2022-12-18T11:07:25;15.90;;;10.65;;
20073;SDS011;10197;54.282;10.078;2022-12-18T11:10:16;17.55;;;11.90;;
20073;SDS011;10197;54.282;10.078;2022-12-18T11:12:44;15.82;;;11.63;;
20073;SDS011;10197;54.282;10.078;2022-12-18T11:15:15;15.43;;;10.73;;
20073;SDS011;10197;54.282;10.078;2022-12-18T11:17:43;18.13;;;11.80;;
20073;SDS011;10197;54.282;10.078;2022-12-18T11:20:19;17.23;;;11.10;;
20073;SDS011;10197;54.282;10.078;2022-12-18T11:22:54;16.25;;;11.23;;
20073;SDS011;10197;54.282;10.078;2022-12-18T11:25:28;16.02;;;11.13;;
20073;SDS011;10197;54.282;10.078;2022-12-18T11:27:56;15.57;;;10.77;;
20073;SDS011;10197;54.282;10.078;2022-12-18T11:30:27;13.68;;;10.40;;
20073;SDS011;10197;54.282;10.078;2022-12-18T11:32:59;16.25;;;11.57;;
20073;SDS011;10197;54.282;10.078;2022-12-18T11:35:37;18.63;;;12.40;;
20073;SDS011;10197;54.282;10.078;2022-12-18T11:38:10;16.92;;;11.60;;
20073;SDS011;10197;54.282;10.078;2022-12-18T11:40:43;14.93;;;11.07;;
20073;SDS011;10197;54.282;10.078;2022-12-18T11:43:13;19.05;;;11.05;;
20073;SDS011;10197;54.282;10.078;2022-12-18T11:45:43;15.40;;;11.77;;
20073;SDS011;10197;54.282;10.078;2022-12-18T11:48:17;19.52;;;11.73;;
20073;SDS011;10197;54.282;10.078;2022-12-18T11:50:47;15.82;;;11.50;;
20073;SDS011;10197;54.282;10.078;2022-12-18T11:53:17;15.15;;;11.15;;
20073;SDS011;10197;54.282;10.078;2022-12-18T11:55:51;14.02;;;9.93;;
20073;SDS011;10197;54.282;10.078;2022-12-18T11:58:38;16.70;;;11.38;;
20073;SDS011;10197;54.282;10.078;2022-12-18T12:01:12;17.58;;;10.93;;
20073;SDS011;10197;54.282;10.078;2022-12-18T12:03:56;19.30;;;12.13;;
20073;SDS011;10197;54.282;10.078;2022-12-18T12:06:35;29.98;;;21.50;;
20073;SDS011;10197;54.282;10.078;2022-12-18T12:09:08;17.17;;;12.27;;
20073;SDS011;10197;54.282;10.078;2022-12-18T12:11:45;18.80;;;12.93;;
20073;SDS011;10197;54.282;10.078;2022-12-18T12:14:23;16.88;;;11.20;;
20073;SDS011;10197;54.282;10.078;2022-12-18T12:16:57;19.50;;;14.15;;
20073;SDS011;10197;54.282;10.078;2022-12-18T12:19:29;16.17;;;11.63;;
20073;SDS011;10197;54.282;10.078;2022-12-18T12:22:03;17.48;;;11.82;;
20073;SDS011;10197;54.282;10.078;2022-12-18T12:24:37;20.77;;;13.77;;
20073;SDS011;10197;54.282;10.078;2022-12-18T12:27:12;20.55;;;14.52;;
20073;SDS011;10197;54.282;10.078;2022-12-18T12:29:50;16.67;;;12.20;;
20073;SDS011;10197;54.282;10.078;2022-12-18T12:32:28;17.77;;;11.95;;
20073;SDS011;10197;54.282;10.078;2022-12-18T12:35:06;18.52;;;14.00;;
20073;SDS011;10197;54.282;10.078;2022-12-18T12:37:42;23.45;;;17.33;;
20073;SDS011;10197;54.282;10.078;2022-12-18T12:40:12;18.60;;;13.85;;
20073;SDS011;10197;54.282;10.078;2022-12-18T12:42:44;27.05;;;18.35;;
20073;SDS011;10197;54.282;10.078;2022-12-18T12:45:36;21.42;;;14.10;;
20073;SDS011;10197;54.282;10.078;2022-12-18T12:48:05;21.58;;;14.93;;
20073;SDS011;10197;54.282;10.078;2022-12-18T12:50:36;23.08;;;15.77;;
20073;SDS011;10197;54.282;10.078;2022-12-18T12:53:09;23.30;;;14.90;;
20073;SDS011;10197;54.282;10.078;2022-12-18T12:55:44;39.75;;;23.30;;
20073;SDS011;10197;54.282;10.078;2022-12-18T13:25:33;23.60;;;15.13;;
20073;SDS011;10197;54.282;10.078;2022-12-18T13:28:04;24.23;;;13.82;;
20073;SDS011;10197;54.282;10.078;2022-12-18T13:30:53;23.67;;;15.95;;
20073;SDS011;10197;54.282;10.078;2022-12-18T13:36:25;21.80;;;13.82;;
20073;SDS011;10197;54.282;10.078;2022-12-18T13:39:11;21.73;;;13.65;;
20073;SDS011;10197;54.282;10.078;2022-12-18T13:41:50;22.95;;;14.90;;
20073;SDS011;10197;54.282;10.078;2022-12-18T13:44:24;19.60;;;12.32;;
20073;SDS011;10197;54.282;10.078;2022-12-18T13:46:58;24.27;;;16.38;;
20073;SDS011;10197;54.282;10.078;2022-12-18T13:49:27;26.30;;;16.60;;
20073;SDS011;10197;54.282;10.078;2022-12-18T13:51:56;21.85;;;15.45;;
20073;SDS011;10197;54.282;10.078;2022-12-18T13:54:33;27.02;;;16.05;;
20073;SDS011;10197;54.282;10.078;2022-12-18T13:57:03;19.15;;;12.40;;
20073;SDS011;10197;54.282;10.078;2022-12-18T13:59:33;18.88;;;10.80;;
20073;SDS011;10197;54.282;10.078;2022-12-18T14:02:05;19.00;;;13.00;;
20073;SDS011;10197;54.282;10.078;2022-12-18T14:04:38;17.80;;;12.90;;
20073;SDS011;10197;54.282;10.078;2022-12-18T14:07:05;19.95;;;12.90;;
20073;SDS011;10197;54.282;10.078;2022-12-18T14:09:34;23.40;;;13.57;;
20073;SDS011;10197;54.282;10.078;2022-12-18T14:12:04;21.83;;;13.77;;
20073;SDS011;10197;54.282;10.078;2022-12-18T14:14:50;20.88;;;12.95;;
20073;SDS011;10197;54.282;10.078;2022-12-18T14:21:21;20.70;;;13.27;;
20073;SDS011;10197;54.282;10.078;2022-12-18T14:23:49;20.50;;;13.75;;
20073;SDS011;10197;54.282;10.078;2022-12-18T14:26:20;21.15;;;13.38;;
20073;SDS011;10197;54.282;10.078;2022-12-18T14:28:51;23.80;;;13.65;;
20073;SDS011;10197;54.282;10.078;2022-12-18T14:31:19;22.00;;;14.00;;
20073;SDS011;10197;54.282;10.078;2022-12-18T14:33:47;25.63;;;14.85;;
20073;SDS011;10197;54.282;10.078;2022-12-18T14:36:15;23.83;;;13.98;;
20073;SDS011;10197;54.282;10.078;2022-12-18T14:38:47;23.88;;;14.90;;
20073;SDS011;10197;54.282;10.078;2022-12-18T14:41:16;45.72;;;26.35;;
20073;SDS011;10197;54.282;10.078;2022-12-18T14:43:45;41.33;;;23.20;;
20073;SDS011;10197;54.282;10.078;2022-12-18T14:46:28;38.65;;;21.67;;
20073;SDS011;10197;54.282;10.078;2022-12-18T14:48:59;41.13;;;22.95;;
20073;SDS011;10197;54.282;10.078;2022-12-18T14:51:27;31.13;;;17.73;;
20073;SDS011;10197;54.282;10.078;2022-12-18T14:53:56;51.05;;;30.63;;
20073;SDS011;10197;54.282;10.078;2022-12-18T14:56:24;50.10;;;27.38;;
20073;SDS011;10197;54.282;10.078;2022-12-18T14:58:53;52.03;;;27.50;;
20073;SDS011;10197;54.282;10.078;2022-12-18T15:01:22;59.80;;;30.40;;